Time;durP1;ratioP1;P1;durP2;ratioP2;P2;SDS_P1;SDS_P2;PMS_P1;PMS_P2;Temp;Humidity;BMP_temperature;BMP_pressure;BME280_temperature;BME280_humidity;BME280_pressure;Samples;Min_cycle;Max_cycle;Signal;HPM_P1;HPM_P2
2021/12/03 00:00:22;;;;;;;27.33;17.63;;;1.70;99.90;;;;;;5054121;28;20201;-60
2021/12/03 00:02:50;;;;;;;27.00;16.98;;;1.80;99.90;;;;;;5053093;28;20585;-60
2021/12/03 00:05:19;;;;;;;23.98;17.13;;;1.80;99.90;;;;;;5053622;28;20242;-62
2021/12/03 00:07:47;;;;;;;22.35;15.00;;;1.90;99.90;;;;;;5053157;28;20286;-63
2021/12/03 00:10:21;;;;;;;21.73;16.52;;;1.80;99.90;;;;;;5053672;28;20193;-61
2021/12/03 00:12:50;;;;;;;25.70;15.77;;;1.90;99.90;;;;;;5051986;28;20629;-61
2021/12/03 00:15:19;;;;;;;23.83;15.95;;;1.90;99.90;;;;;;5053579;28;20189;-62
2021/12/03 00:17:47;;;;;;;23.80;16.27;;;1.90;99.90;;;;;;5053121;28;20216;-61
2021/12/03 00:20:17;;;;;;;22.10;17.65;;;1.90;99.90;;;;;;5053612;28;20192;-60
2021/12/03 00:22:48;;;;;;;24.17;15.95;;;1.90;99.90;;;;;;5052788;28;20216;-61
2021/12/03 00:25:18;;;;;;;23.85;14.40;;;1.90;99.90;;;;;;5053417;28;20192;-62
2021/12/03 00:27:46;;;;;;;25.77;16.27;;;1.90;99.90;;;;;;5052574;28;20633;-62
2021/12/03 00:30:17;;;;;;;24.27;15.63;;;1.90;99.90;;;;;;5052399;28;20247;-60
2021/12/03 00:32:46;;;;;;;24.65;15.25;;;2.00;99.90;;;;;;5052797;28;20212;-61
2021/12/03 00:35:16;;;;;;;22.98;16.15;;;2.00;99.90;;;;;;5052321;28;20187;-62
2021/12/03 00:37:46;;;;;;;24.90;15.93;;;2.00;99.90;;;;;;5052584;28;20755;-62
2021/12/03 00:40:19;;;;;;;24.92;15.80;;;2.10;99.90;;;;;;5053429;28;20246;-60
2021/12/03 00:42:47;;;;;;;28.98;16.52;;;2.10;99.90;;;;;;5055385;28;20216;-60
2021/12/03 00:45:16;;;;;;;22.77;16.13;;;2.10;99.90;;;;;;5072509;28;20270;-62
2021/12/03 00:47:45;;;;;;;22.75;15.55;;;2.20;99.90;;;;;;5072554;28;20224;-62
2021/12/03 00:50:16;;;;;;;26.52;17.55;;;2.20;99.90;;;;;;5073141;28;20275;-61
2021/12/03 00:52:44;;;;;;;26.77;15.43;;;2.20;99.90;;;;;;5065685;28;20219;-60
2021/12/03 00:55:12;;;;;;;25.00;16.33;;;2.20;99.90;;;;;;5052569;28;20184;-62
2021/12/03 00:57:42;;;;;;;26.35;16.55;;;2.30;99.90;;;;;;5052099;28;20628;-61
2021/12/03 01:00:14;;;;;;;22.75;15.07;;;2.30;99.90;;;;;;5067983;28;20246;-61
2021/12/03 01:02:42;;;;;;;25.25;15.55;;;2.30;99.90;;;;;;5052206;28;20567;-60
2021/12/03 01:05:10;;;;;;;26.88;15.73;;;2.30;99.90;;;;;;5052498;28;20200;-62
2021/12/03 01:07:39;;;;;;;21.77;14.88;;;2.30;99.90;;;;;;5052514;28;20282;-62
2021/12/03 01:10:09;;;;;;;26.13;13.98;;;2.40;99.90;;;;;;5052997;28;20609;-60
2021/12/03 01:12:38;;;;;;;22.13;15.20;;;2.40;99.90;;;;;;5052521;28;20645;-60
2021/12/03 01:15:12;;;;;;;21.67;14.27;;;2.40;99.90;;;;;;5052369;28;20618;-62
2021/12/03 01:17:40;;;;;;;20.98;13.63;;;2.40;99.90;;;;;;5052041;28;20710;-62
2021/12/03 01:20:10;;;;;;;28.25;16.20;;;2.50;99.90;;;;;;5052342;28;20192;-60
2021/12/03 01:22:39;;;;;;;24.60;15.25;;;2.40;99.90;;;;;;5051409;28;20227;-60
2021/12/03 01:25:10;;;;;;;25.73;15.23;;;2.50;99.90;;;;;;5052237;28;20630;-62
2021/12/03 01:27:39;;;;;;;23.73;15.20;;;2.50;99.90;;;;;;5053363;28;20317;-61
2021/12/03 01:30:11;;;;;;;23.42;16.17;;;2.50;99.90;;;;;;5071553;28;20191;-61
2021/12/03 01:32:40;;;;;;;28.40;17.25;;;2.50;99.90;;;;;;5071602;28;20224;-60
2021/12/03 01:35:10;;;;;;;28.65;15.57;;;2.50;99.90;;;;;;5071834;28;20192;-62
2021/12/03 01:37:38;;;;;;;26.02;16.23;;;2.50;99.90;;;;;;5070136;28;20652;-62
2021/12/03 01:40:11;;;;;;;22.20;15.00;;;2.50;99.90;;;;;;5072235;28;20249;-61
2021/12/03 01:42:41;;;;;;;22.92;15.82;;;2.60;99.90;;;;;;5068686;28;20619;-60
2021/12/03 01:45:13;;;;;;;23.15;14.73;;;2.60;99.90;;;;;;5051520;28;20193;-62
2021/12/03 01:47:42;;;;;;;23.17;13.82;;;2.70;99.90;;;;;;5050825;28;20307;-61
2021/12/03 01:50:11;;;;;;;19.55;12.77;;;2.70;99.90;;;;;;5051947;28;20224;-62
2021/12/03 01:52:40;;;;;;;25.50;14.10;;;2.70;99.90;;;;;;5051425;28;20316;-61
2021/12/03 01:55:10;;;;;;;18.48;12.00;;;2.70;99.90;;;;;;5051679;28;20666;-62
2021/12/03 01:57:39;;;;;;;15.98;11.73;;;2.70;99.90;;;;;;5050691;28;20245;-62
2021/12/03 02:00:11;;;;;;;24.55;12.10;;;2.70;99.90;;;;;;5066826;28;20188;-61
2021/12/03 02:02:41;;;;;;;20.42;12.00;;;2.80;99.90;;;;;;5069891;28;20222;-61
2021/12/03 02:05:10;;;;;;;20.85;12.93;;;2.70;99.90;;;;;;5071822;28;20697;-60
2021/12/03 02:07:39;;;;;;;18.15;11.68;;;2.70;99.90;;;;;;5065362;28;20311;-63
2021/12/03 02:10:09;;;;;;;17.13;12.02;;;2.70;99.90;;;;;;5051648;28;20560;-61
2021/12/03 02:12:38;;;;;;;15.32;11.38;;;2.70;99.90;;;;;;5051057;28;20227;-62
2021/12/03 02:15:07;;;;;;;21.23;10.77;;;2.80;99.90;;;;;;5051445;28;20200;-62
2021/12/03 02:17:35;;;;;;;24.17;9.88;;;2.80;99.90;;;;;;5051026;28;20216;-62
2021/12/03 02:20:07;;;;;;;12.75;10.75;;;2.80;99.90;;;;;;5051731;28;20193;-60
2021/12/03 02:22:37;;;;;;;15.80;11.15;;;2.80;99.90;;;;;;5051083;28;20224;-61
2021/12/03 02:25:08;;;;;;;17.05;10.77;;;2.80;99.90;;;;;;5051503;28;20203;-62
2021/12/03 02:27:36;;;;;;;18.20;10.05;;;2.80;99.90;;;;;;5050849;28;20216;-63
2021/12/03 02:30:06;;;;;;;14.35;9.80;;;2.80;99.90;;;;;;5051276;28;20631;-61
2021/12/03 02:32:35;;;;;;;15.35;11.02;;;2.80;99.90;;;;;;5051044;28;20245;-61
2021/12/03 02:35:03;;;;;;;17.75;11.50;;;2.80;99.90;;;;;;5051013;28;20606;-62
2021/12/03 02:37:32;;;;;;;18.80;10.85;;;2.80;99.90;;;;;;5051060;28;20281;-62
2021/12/03 02:40:02;;;;;;;17.33;10.10;;;2.80;99.90;;;;;;5051480;28;20234;-61
2021/12/03 02:42:30;;;;;;;21.13;10.20;;;2.80;99.90;;;;;;5051134;28;20212;-61
2021/12/03 02:44:58;;;;;;;18.00;11.05;;;2.70;99.90;;;;;;5050896;28;20188;-60
2021/12/03 02:47:26;;;;;;;15.95;11.73;;;2.70;99.90;;;;;;5050750;28;20251;-62
2021/12/03 02:49:54;;;;;;;11.48;9.30;;;2.70;99.90;;;;;;5051293;28;20626;-61
2021/12/03 02:52:23;;;;;;;15.60;11.48;;;2.70;99.90;;;;;;5050610;28;20242;-61
2021/12/03 02:54:51;;;;;;;16.70;11.85;;;2.70;99.90;;;;;;5050988;28;20205;-63
2021/12/03 02:57:21;;;;;;;19.23;11.02;;;2.70;99.90;;;;;;5051209;28;20721;-62
2021/12/03 02:59:49;;;;;;;13.93;10.65;;;2.70;99.90;;;;;;5074609;28;20523;-61
2021/12/03 03:02:18;;;;;;;16.50;11.05;;;2.70;99.90;;;;;;5074856;28;20230;-61
2021/12/03 03:04:53;;;;;;;17.23;9.90;;;2.80;99.90;;;;;;5073605;28;20275;-62
2021/12/03 03:07:21;;;;;;;17.65;10.13;;;2.80;99.90;;;;;;5073234;28;20227;-63
2021/12/03 03:09:49;;;;;;;15.98;10.80;;;2.90;99.90;;;;;;5073056;28;20223;-60
2021/12/03 03:12:18;;;;;;;16.00;10.27;;;2.90;99.90;;;;;;5074452;28;20224;-61
2021/12/03 03:14:54;;;;;;;15.35;10.63;;;2.90;99.90;;;;;;5054776;28;20212;-62
2021/12/03 03:17:24;;;;;;;15.90;9.93;;;2.90;99.90;;;;;;5054315;28;20224;-62
2021/12/03 03:19:52;;;;;;;19.33;11.48;;;2.90;99.90;;;;;;5054775;28;20193;-61
2021/12/03 03:22:21;;;;;;;18.80;9.80;;;2.90;99.90;;;;;;5053619;28;20220;-61
2021/12/03 03:24:50;;;;;;;15.57;10.20;;;2.90;99.90;;;;;;5054310;28;20189;-62
2021/12/03 03:27:20;;;;;;;19.60;11.40;;;2.90;99.90;;;;;;5054099;28;20690;-61
2021/12/03 03:29:51;;;;;;;15.95;9.95;;;2.90;99.90;;;;;;5074301;28;20676;-61
2021/12/03 03:32:19;;;;;;;24.80;10.90;;;3.00;99.90;;;;;;5074013;28;20219;-61
2021/12/03 03:34:48;;;;;;;18.00;11.88;;;3.00;99.90;;;;;;5074250;28;20638;-60
2021/12/03 03:37:17;;;;;;;17.48;9.90;;;3.00;99.90;;;;;;5068889;28;20686;-62
2021/12/03 03:39:46;;;;;;;19.38;9.98;;;3.10;99.90;;;;;;5054335;28;20193;-63
2021/12/03 03:42:15;;;;;;;19.02;11.27;;;3.10;99.90;;;;;;5053636;28;20633;-61
2021/12/03 03:44:43;;;;;;;23.05;11.38;;;3.10;99.90;;;;;;5053825;28;20199;-61
2021/12/03 03:47:13;;;;;;;18.55;10.70;;;3.10;99.90;;;;;;5053551;28;20562;-62
2021/12/03 03:49:41;;;;;;;20.15;10.15;;;3.20;99.90;;;;;;5053189;28;20216;-63
2021/12/03 03:52:09;;;;;;;15.40;10.23;;;3.20;99.90;;;;;;5065636;28;20249;-61
2021/12/03 03:54:38;;;;;;;18.50;12.05;;;3.10;99.90;;;;;;5073858;28;20184;-61
2021/12/03 03:57:06;;;;;;;24.05;11.32;;;3.10;99.90;;;;;;5073681;28;20237;-63
2021/12/03 03:59:34;;;;;;;16.38;11.00;;;3.10;99.90;;;;;;5065272;28;20216;-62
2021/12/03 04:02:02;;;;;;;19.10;11.30;;;3.20;99.90;;;;;;5073222;28;20204;-61
2021/12/03 04:04:32;;;;;;;27.77;12.13;;;3.20;99.90;;;;;;5073943;28;20195;-61
2021/12/03 04:07:00;;;;;;;13.30;10.35;;;3.20;99.90;;;;;;5059126;28;20200;-62
2021/12/03 04:09:28;;;;;;;17.27;10.55;;;3.30;99.90;;;;;;5052903;28;20754;-62
2021/12/03 04:11:57;;;;;;;25.55;10.88;;;3.30;99.90;;;;;;5052198;28;20193;-61
2021/12/03 04:14:25;;;;;;;19.90;10.50;;;3.20;99.90;;;;;;5053302;28;20180;-61
2021/12/03 04:16:53;;;;;;;16.83;9.63;;;3.20;99.90;;;;;;5053882;28;20188;-62
2021/12/03 04:19:21;;;;;;;15.32;8.90;;;3.30;99.90;;;;;;5053266;28;20220;-62
2021/12/03 04:21:51;;;;;;;14.40;8.30;;;3.20;99.90;;;;;;5053757;28;20202;-61
2021/12/03 04:24:19;;;;;;;20.83;9.52;;;3.20;99.90;;;;;;5052890;28;20658;-61
2021/12/03 04:26:47;;;;;;;11.20;7.95;;;3.20;99.90;;;;;;5053420;28;20197;-62
2021/12/03 04:29:15;;;;;;;12.93;8.20;;;3.20;99.90;;;;;;5052382;28;20283;-62
2021/12/03 04:31:43;;;;;;;12.13;8.00;;;3.20;99.90;;;;;;5068933;28;20662;-61
2021/12/03 04:34:11;;;;;;;17.73;8.82;;;3.30;99.90;;;;;;5052614;28;20239;-61
2021/12/03 04:36:41;;;;;;;13.85;7.70;;;3.20;99.90;;;;;;5053555;28;20185;-62
2021/12/03 04:39:12;;;;;;;13.80;8.27;;;3.20;99.90;;;;;;5052634;28;20228;-62
2021/12/03 04:41:40;;;;;;;14.70;8.18;;;3.30;99.90;;;;;;5053217;28;20197;-62
2021/12/03 04:44:08;;;;;;;14.57;8.05;;;3.20;99.90;;;;;;5052318;28;20224;-61
2021/12/03 04:46:36;;;;;;;17.15;6.55;;;3.20;99.90;;;;;;5052951;28;20205;-62
2021/12/03 04:49:04;;;;;;;13.98;8.07;;;3.20;99.90;;;;;;5052488;28;20637;-62
2021/12/03 04:51:32;;;;;;;10.43;6.32;;;3.20;99.90;;;;;;5052874;28;20605;-61
2021/12/03 04:54:01;;;;;;;10.02;6.10;;;3.20;99.90;;;;;;5052562;28;20234;-61
2021/12/03 04:56:30;;;;;;;13.00;6.75;;;3.20;99.90;;;;;;5053003;28;20558;-62
2021/12/03 04:58:58;;;;;;;15.40;7.57;;;3.20;99.90;;;;;;5057947;28;20257;-62
2021/12/03 05:01:28;;;;;;;11.65;6.95;;;3.20;99.90;;;;;;5072773;28;20233;-61
2021/12/03 05:03:56;;;;;;;15.30;7.35;;;3.20;99.90;;;;;;5071972;28;20225;-61
2021/12/03 05:06:31;;;;;;;10.77;6.70;;;3.20;99.90;;;;;;5072320;28;20607;-62
2021/12/03 05:08:59;;;;;;;12.73;7.10;;;3.10;99.90;;;;;;5054279;28;20299;-62
2021/12/03 05:11:28;;;;;;;17.52;7.55;;;3.20;99.90;;;;;;5052534;28;20512;-61
2021/12/03 05:13:57;;;;;;;13.73;6.50;;;3.10;99.90;;;;;;5052117;28;20546;-61
2021/12/03 05:16:25;;;;;;;12.30;7.38;;;3.10;99.90;;;;;;5052166;28;20188;-63
2021/12/03 05:18:53;;;;;;;12.68;6.45;;;3.10;99.90;;;;;;5052142;28;20644;-62
2021/12/03 05:21:21;;;;;;;12.93;6.35;;;3.10;99.90;;;;;;5051359;28;20185;-61
2021/12/03 05:23:49;;;;;;;13.85;7.07;;;3.20;99.90;;;;;;5051844;28;20235;-60
2021/12/03 05:26:18;;;;;;;15.18;8.90;;;3.20;99.90;;;;;;5067688;28;20200;-62
2021/12/03 05:28:46;;;;;;;9.70;6.25;;;3.20;99.90;;;;;;5051498;28;20216;-62
2021/12/03 05:31:15;;;;;;;14.48;8.32;;;3.20;99.90;;;;;;5052323;28;20216;-61
2021/12/03 05:33:43;;;;;;;14.38;8.48;;;3.20;99.90;;;;;;5051665;28;20224;-61
2021/12/03 05:36:11;;;;;;;15.48;8.02;;;3.20;99.90;;;;;;5052486;28;20242;-62
2021/12/03 05:38:40;;;;;;;14.60;8.70;;;3.20;99.90;;;;;;5051697;28;20235;-63
2021/12/03 05:41:28;;;;;;;14.65;8.88;;;3.20;99.90;;;;;;5052233;28;20191;-62
2021/12/03 05:43:56;;;;;;;20.08;8.75;;;3.30;99.90;;;;;;5062128;28;20212;-61
2021/12/03 05:46:26;;;;;;;16.55;9.68;;;3.20;99.90;;;;;;5072178;28;20249;-63
2021/12/03 05:48:54;;;;;;;17.67;9.18;;;3.20;99.90;;;;;;5071888;28;20310;-62
2021/12/03 05:51:25;;;;;;;27.00;10.52;;;3.20;99.90;;;;;;5067956;28;20203;-62
2021/12/03 05:53:53;;;;;;;15.80;8.40;;;3.30;99.90;;;;;;5050231;28;20223;-61
2021/12/03 05:56:22;;;;;;;15.23;10.23;;;3.30;99.90;;;;;;5051804;28;20254;-63
2021/12/03 05:58:50;;;;;;;16.63;8.77;;;3.40;99.90;;;;;;5054405;28;20307;-62
2021/12/03 06:01:18;;;;;;;20.33;9.70;;;3.30;99.90;;;;;;5071881;28;20191;-61
2021/12/03 06:03:48;;;;;;;19.88;9.73;;;3.30;99.90;;;;;;5070736;28;20226;-61
2021/12/03 06:06:16;;;;;;;16.00;8.57;;;3.30;99.90;;;;;;5071314;28;20650;-62
2021/12/03 06:08:46;;;;;;;14.45;8.90;;;3.30;99.90;;;;;;5067654;28;20219;-63
2021/12/03 06:11:14;;;;;;;12.68;8.35;;;3.30;99.90;;;;;;5070888;28;20295;-62
2021/12/03 06:13:42;;;;;;;13.50;7.00;;;3.30;99.90;;;;;;5059762;28;20220;-61
2021/12/03 06:16:12;;;;;;;17.13;7.72;;;3.30;99.90;;;;;;5068274;28;20188;-63
2021/12/03 06:18:41;;;;;;;10.52;8.82;;;3.30;99.90;;;;;;5071150;28;20227;-62
2021/12/03 06:21:14;;;;;;;16.67;8.73;;;3.30;99.90;;;;;;5070215;28;20245;-61
2021/12/03 06:23:43;;;;;;;22.00;9.20;;;3.30;99.90;;;;;;5071047;28;20627;-61
2021/12/03 06:26:12;;;;;;;21.25;11.18;;;3.30;99.90;;;;;;5070217;28;20640;-61
2021/12/03 06:28:42;;;;;;;18.73;9.45;;;3.30;99.90;;;;;;5059796;28;20294;-62
2021/12/03 06:31:10;;;;;;;13.63;8.88;;;3.20;99.90;;;;;;5051185;28;20644;-62
2021/12/03 06:33:38;;;;;;;14.55;8.35;;;3.20;99.90;;;;;;5054151;28;20224;-62
2021/12/03 06:36:06;;;;;;;15.45;9.90;;;3.20;99.90;;;;;;5055266;28;20190;-60
2021/12/03 06:38:38;;;;;;;16.48;8.15;;;3.20;99.90;;;;;;5066355;28;20223;-62
2021/12/03 06:41:07;;;;;;;19.00;10.30;;;3.10;99.90;;;;;;5075461;28;20237;-62
2021/12/03 06:43:36;;;;;;;23.77;11.77;;;3.10;99.90;;;;;;5064013;28;20282;-61
2021/12/03 06:46:05;;;;;;;17.83;10.93;;;3.00;99.90;;;;;;5054128;28;20537;-61
2021/12/03 06:48:33;;;;;;;24.52;11.00;;;3.00;99.90;;;;;;5054844;28;20226;-62
2021/12/03 06:51:01;;;;;;;18.40;11.43;;;3.00;99.90;;;;;;5055418;28;20570;-63
2021/12/03 06:53:39;;;;;;;19.27;12.00;;;2.90;99.90;;;;;;5054698;28;20270;-61
2021/12/03 06:56:11;;;;;;;19.83;11.70;;;2.90;99.90;;;;;;5055208;28;20356;-61
2021/12/03 06:58:39;;;;;;;20.08;10.43;;;3.00;99.90;;;;;;5054811;28;20306;-61
2021/12/03 07:01:07;;;;;;;18.00;9.43;;;3.00;99.90;;;;;;5055359;28;20188;-62
2021/12/03 07:03:39;;;;;;;13.15;7.45;;;2.90;99.90;;;;;;5053117;28;20968;-60
2021/12/03 07:06:07;;;;;;;11.23;6.43;;;2.90;99.90;;;;;;5054720;28;20200;-60
2021/12/03 07:08:35;;;;;;;11.88;5.97;;;2.90;99.90;;;;;;5054266;28;20263;-62
2021/12/03 07:11:03;;;;;;;9.77;5.57;;;3.00;99.90;;;;;;5065921;28;20192;-62
2021/12/03 07:13:33;;;;;;;11.88;4.93;;;3.00;99.90;;;;;;5071866;28;20247;-61
2021/12/03 07:16:05;;;;;;;12.82;5.72;;;3.00;99.90;;;;;;5073432;28;20188;-62
2021/12/03 07:18:33;;;;;;;17.30;5.63;;;3.00;99.90;;;;;;5074221;28;20307;-61
2021/12/03 07:21:01;;;;;;;17.52;5.25;;;3.00;99.90;;;;;;5071595;28;20188;-62
2021/12/03 07:23:29;;;;;;;8.23;4.80;;;3.00;99.90;;;;;;5074129;28;20298;-61
2021/12/03 07:25:59;;;;;;;8.13;4.57;;;2.90;99.90;;;;;;5073422;28;20184;-60
2021/12/03 07:28:27;;;;;;;9.75;4.55;;;2.90;99.90;;;;;;5066588;28;20603;-61
2021/12/03 07:30:57;;;;;;;12.20;5.00;;;2.90;99.90;;;;;;5074033;28;20299;-61
2021/12/03 07:33:27;;;;;;;5.57;4.10;;;3.00;99.90;;;;;;5072610;28;20223;-61
2021/12/03 07:35:55;;;;;;;13.13;4.50;;;3.00;99.90;;;;;;5074474;28;20539;-61
2021/12/03 07:38:24;;;;;;;15.20;4.10;;;2.90;99.90;;;;;;5062787;28;20311;-62
2021/12/03 07:40:52;;;;;;;11.30;4.25;;;3.00;99.90;;;;;;5071309;28;20196;-61
2021/12/03 07:43:20;;;;;;;7.32;3.90;;;3.00;99.90;;;;;;5065122;28;20215;-61
2021/12/03 07:45:50;;;;;;;11.60;4.40;;;3.00;99.90;;;;;;5061414;28;20192;-61
2021/12/03 07:48:21;;;;;;;5.45;3.55;;;3.00;99.90;;;;;;5073780;28;20293;-62
2021/12/03 07:50:50;;;;;;;17.27;3.35;;;3.00;99.90;;;;;;5069613;28;20609;-62
2021/12/03 07:53:19;;;;;;;6.28;3.25;;;3.00;99.90;;;;;;5053700;28;20602;-61
2021/12/03 07:55:49;;;;;;;11.25;3.40;;;3.00;99.90;;;;;;5054049;28;20203;-61
2021/12/03 07:58:18;;;;;;;9.02;4.30;;;3.10;99.90;;;;;;5066150;28;20301;-61
2021/12/03 08:00:48;;;;;;;7.15;3.42;;;3.10;99.90;;;;;;5074172;28;20282;-61
2021/12/03 08:03:20;;;;;;;7.07;3.65;;;3.10;99.90;;;;;;5073010;28;20559;-61
2021/12/03 08:05:48;;;;;;;12.18;3.63;;;3.10;99.90;;;;;;5052334;28;20234;-61
2021/12/03 08:08:22;;;;;;;5.43;3.38;;;3.10;99.90;;;;;;5058901;28;20228;-61
2021/12/03 08:10:52;;;;;;;10.40;3.40;;;3.10;99.90;;;;;;5072722;28;20191;-61
2021/12/03 08:13:20;;;;;;;13.05;3.00;;;3.20;99.90;;;;;;5065222;28;20756;-61
2021/12/03 08:15:48;;;;;;;7.13;3.05;;;3.20;99.90;;;;;;5053479;28;20451;-60
2021/12/03 08:18:17;;;;;;;8.48;3.35;;;3.20;99.90;;;;;;5052129;28;20255;-61
2021/12/03 08:20:47;;;;;;;8.07;4.00;;;3.30;99.90;;;;;;5063422;28;20241;-60
2021/12/03 08:23:15;;;;;;;8.38;3.47;;;3.30;99.90;;;;;;5060175;28;20718;-60
2021/12/03 08:25:43;;;;;;;5.93;2.95;;;3.30;99.90;;;;;;5063028;28;20216;-60
2021/12/03 08:28:11;;;;;;;7.97;3.67;;;3.30;99.90;;;;;;5067417;28;20307;-60
2021/12/03 08:30:40;;;;;;;7.63;2.85;;;3.30;99.90;;;;;;5053498;28;20199;-61
2021/12/03 08:33:08;;;;;;;9.75;3.42;;;3.40;99.90;;;;;;5052898;28;20286;-60
2021/12/03 08:35:37;;;;;;;6.70;3.15;;;3.40;99.90;;;;;;5053416;28;20240;-61
2021/12/03 08:38:06;;;;;;;16.55;3.72;;;3.50;99.90;;;;;;5052494;28;20235;-60
2021/12/03 08:40:53;;;;;;;5.90;3.28;;;3.50;99.90;;;;;;5054970;28;20184;-62
2021/12/03 08:43:21;;;;;;;11.27;3.70;;;3.60;99.90;;;;;;5055767;28;20720;-61
2021/12/03 08:45:53;;;;;;;7.10;3.00;;;3.60;99.90;;;;;;5052842;28;20200;-61
2021/12/03 08:48:23;;;;;;;9.23;3.17;;;3.60;99.90;;;;;;5077397;28;20227;-61
2021/12/03 08:51:09;;;;;;;9.75;3.30;;;3.60;99.90;;;;;;5072589;28;20692;-61
2021/12/03 08:56:24;;;;;;;5.82;2.85;;;3.60;99.90;;;;;;5072645;28;20274;-60
2021/12/03 08:58:53;;;;;;;9.25;3.08;;;3.70;99.90;;;;;;5060829;28;20223;-60
2021/12/03 09:01:21;;;;;;;12.30;3.05;;;3.70;99.90;;;;;;5053577;28;20199;-61
2021/12/03 09:03:50;;;;;;;11.07;3.97;;;3.80;99.90;;;;;;5053686;28;20240;-61
2021/12/03 09:06:18;;;;;;;14.82;3.38;;;3.80;99.90;;;;;;5052137;28;20203;-61
2021/12/03 09:08:48;;;;;;;9.07;3.53;;;3.80;99.90;;;;;;5052569;28;20625;-60
2021/12/03 09:11:17;;;;;;;7.40;3.05;;;3.90;99.90;;;;;;5069228;28;20274;-62
2021/12/03 09:13:47;;;;;;;13.60;3.47;;;4.00;99.90;;;;;;5053207;28;20213;-61
2021/12/03 09:16:18;;;;;;;10.85;3.15;;;4.10;99.90;;;;;;5052761;28;20193;-61
2021/12/03 09:18:47;;;;;;;5.72;2.70;;;4.10;99.90;;;;;;5070480;28;20644;-62
2021/12/03 09:21:22;;;;;;;13.25;3.00;;;4.00;99.90;;;;;;5072566;28;20191;-62
2021/12/03 09:24:08;;;;;;;7.55;1.90;;;4.00;99.90;;;;;;5058339;28;20238;-60
2021/12/03 09:26:39;;;;;;;7.32;3.25;;;4.00;99.90;;;;;;5053399;28;20548;-60
2021/12/03 09:29:10;;;;;;;10.65;2.75;;;4.10;99.90;;;;;;5060272;28;20258;-61
2021/12/03 09:31:42;;;;;;;7.47;3.03;;;4.10;99.90;;;;;;5061282;28;20532;-62
2021/12/03 09:34:14;;;;;;;13.45;2.92;;;4.00;99.90;;;;;;5055433;28;20215;-60
2021/12/03 09:36:43;;;;;;;13.45;3.13;;;4.10;99.90;;;;;;5071470;28;20673;-60
2021/12/03 09:39:17;;;;;;;9.32;2.60;;;4.10;99.90;;;;;;5069660;28;20223;-61
2021/12/03 09:41:45;;;;;;;7.15;2.60;;;4.20;99.90;;;;;;5072000;28;20184;-61
2021/12/03 09:44:25;;;;;;;7.13;2.60;;;4.20;99.90;;;;;;5065498;28;20445;-61
2021/12/03 09:47:00;;;;;;;8.93;2.00;;;4.30;99.90;;;;;;5042720;28;20188;-61
2021/12/03 09:49:35;;;;;;;5.72;2.70;;;4.40;99.90;;;;;;5068407;28;20474;-61
2021/12/03 09:52:13;;;;;;;5.03;2.95;;;4.20;99.90;;;;;;5052232;28;21699;-61
2021/12/03 09:54:46;;;;;;;5.55;2.53;;;4.20;99.90;;;;;;5061855;28;20195;-61
2021/12/03 09:57:20;;;;;;;8.52;2.55;;;4.20;99.90;;;;;;5071702;28;20624;-61
2021/12/03 10:00:16;;;;;;;6.95;2.15;;;4.20;99.90;;;;;;5053900;28;20374;-60
2021/12/03 10:34:22;;;;;;;4.10;2.10;;;4.40;99.90;;;;;;5097882;28;20214;-60
2021/12/03 10:40:47;;;;;;;5.03;2.90;;;4.40;99.90;;;;;;5096884;28;20295;-61
2021/12/03 10:50:51;;;;;;;5.93;2.58;;;4.50;99.90;;;;;;5108100;28;20612;-61
2021/12/03 10:54:05;;;;;;;6.53;2.75;;;4.50;99.90;;;;;;5107565;28;20292;-61
2021/12/03 13:25:26;;;;;;;3.38;3.00;;;5.10;99.90;;;;;;5111251;28;20198;-61
2021/12/03 13:59:56;;;;;;;30.42;22.83;;;4.80;99.90;;;;;;5038763;28;20224;-61
2021/12/03 14:45:07;;;;;;;6.93;4.32;;;4.80;99.90;;;;;;5028642;28;20315;-62
2021/12/03 14:56:02;;;;;;;13.93;9.77;;;4.80;99.90;;;;;;5052292;28;20532;-60
2021/12/03 14:58:38;;;;;;;6.47;4.20;;;4.80;99.90;;;;;;5047952;28;20625;-61
2021/12/03 15:01:16;;;;;;;42.92;28.02;;;4.80;99.90;;;;;;5050497;28;20211;-62
2021/12/03 15:03:58;;;;;;;10.80;6.78;;;4.80;99.90;;;;;;5054475;28;20237;-63
2021/12/03 15:06:34;;;;;;;8.75;6.25;;;4.90;99.90;;;;;;5067453;28;20220;-61
2021/12/03 15:09:09;;;;;;;17.20;14.18;;;4.90;99.90;;;;;;5061342;28;20251;-62
2021/12/03 15:25:57;;;;;;;4.22;3.03;;;4.80;99.90;;;;;;5109227;27;20544;-62
2021/12/03 15:31:48;;;;;;;9.40;3.25;;;4.80;99.90;;;;;;5082197;28;20633;-62
2021/12/03 15:34:38;;;;;;;3.40;3.10;;;4.70;99.90;;;;;;5088041;28;20249;-63
2021/12/03 15:37:20;;;;;;;3.40;2.33;;;4.70;99.90;;;;;;5086586;28;20210;-61
2021/12/03 15:40:17;;;;;;;3.65;2.55;;;4.70;99.90;;;;;;5100703;28;20191;-62
2021/12/03 15:57:00;;;;;;;3.58;2.50;;;4.70;99.90;;;;;;5027524;28;20208;-61
2021/12/03 16:05:10;;;;;;;5.70;2.42;;;4.60;99.90;;;;;;5087837;28;20234;-63
2021/12/03 16:07:59;;;;;;;5.18;2.45;;;4.70;99.90;;;;;;5086082;28;20473;-61
2021/12/03 16:10:30;;;;;;;2.80;2.60;;;4.70;99.90;;;;;;5080964;28;20188;-60
2021/12/03 16:13:10;;;;;;;1.98;1.85;;;4.70;99.90;;;;;;5101043;28;20689;-62
2021/12/03 16:18:59;;;;;;;3.45;2.50;;;4.70;99.90;;;;;;5081329;28;20270;-61
2021/12/03 16:43:52;;;;;;;2.33;2.13;;;4.80;99.90;;;;;;5062755;28;20616;-63
2021/12/03 16:46:28;;;;;;;3.00;2.65;;;4.80;99.90;;;;;;5061718;28;20192;-62
2021/12/03 16:51:53;;;;;;;5.72;2.53;;;4.80;99.90;;;;;;5068116;28;20196;-62
2021/12/03 16:54:43;;;;;;;3.85;2.33;;;4.80;99.90;;;;;;5074046;28;20298;-62
2021/12/03 16:57:13;;;;;;;3.83;2.72;;;4.80;99.90;;;;;;5072376;28;20558;-61
2021/12/03 16:59:44;;;;;;;2.40;2.20;;;4.80;99.90;;;;;;5072547;28;20224;-60
2021/12/03 17:02:18;;;;;;;3.47;2.35;;;4.80;99.90;;;;;;5063039;28;20221;-62
2021/12/03 17:05:06;;;;;;;1.90;1.75;;;4.80;99.90;;;;;;5062759;28;20207;-62
2021/12/03 17:10:34;;;;;;;2.42;1.50;;;4.80;99.90;;;;;;5055128;28;20233;-61
2021/12/03 17:30:57;;;;;;;3.67;2.10;;;4.80;99.90;;;;;;4994420;28;20205;-61
2021/12/03 17:44:57;;;;;;;2.53;1.55;;;4.90;99.90;;;;;;5076550;28;20302;-62
2021/12/03 17:47:38;;;;;;;1.48;1.33;;;4.80;99.90;;;;;;5073354;28;20218;-63
2021/12/03 17:50:12;;;;;;;1.50;1.40;;;4.90;99.90;;;;;;5078184;28;20195;-63
2021/12/03 17:53:06;;;;;;;3.45;1.98;;;4.80;99.90;;;;;;5075031;28;20635;-62
2021/12/03 17:58:23;;;;;;;2.15;1.25;;;4.80;99.90;;;;;;5078022;28;20631;-62
2021/12/03 18:00:57;;;;;;;2.35;1.48;;;4.80;99.90;;;;;;5094915;28;20198;-63
2021/12/03 18:03:31;;;;;;;2.60;2.40;;;4.80;99.90;;;;;;5094888;27;20222;-62
2021/12/03 18:06:21;;;;;;;4.32;1.67;;;4.80;99.90;;;;;;5091386;28;20247;-62
2021/12/03 18:08:55;;;;;;;1.48;1.38;;;4.80;99.90;;;;;;5087195;28;20231;-62
2021/12/03 18:14:50;;;;;;;1.48;1.02;;;4.90;99.90;;;;;;5075943;28;20289;-62
2021/12/03 18:45:10;;;;;;;1.50;0.93;;;5.00;99.90;;;;;;5093984;28;20251;-62
2021/12/03 18:47:54;;;;;;;1.10;0.88;;;4.90;99.90;;;;;;5081537;28;20298;-62
2021/12/03 18:53:22;;;;;;;1.40;1.08;;;4.90;99.90;;;;;;5061162;28;20216;-62
2021/12/03 18:55:52;;;;;;;1.45;1.25;;;4.90;99.90;;;;;;5053728;28;20199;-61
2021/12/03 18:58:24;;;;;;;1.20;1.10;;;4.90;99.90;;;;;;5066844;28;20249;-62
2021/12/03 19:00:54;;;;;;;1.40;0.88;;;4.90;99.90;;;;;;5073991;28;20280;-62
2021/12/03 19:03:30;;;;;;;1.02;1.00;;;4.90;99.90;;;;;;5053561;28;20227;-62
2021/12/03 19:06:11;;;;;;;0.95;0.85;;;4.90;99.90;;;;;;5081964;28;20194;-62
2021/12/03 19:08:46;;;;;;;0.77;0.77;;;4.90;99.90;;;;;;5078216;28;20223;-62
2021/12/03 19:11:18;;;;;;;1.20;1.10;;;4.90;99.90;;;;;;5086294;28;20214;-62
2021/12/03 19:13:46;;;;;;;1.73;1.40;;;4.90;99.90;;;;;;5080809;28;20211;-62
2021/12/03 19:16:16;;;;;;;2.08;1.63;;;4.90;99.90;;;;;;5086680;28;20222;-62
2021/12/03 19:18:48;;;;;;;1.73;1.10;;;4.90;99.90;;;;;;5075530;28;20220;-62
2021/12/03 19:21:19;;;;;;;2.70;0.90;;;4.90;99.90;;;;;;5073068;28;20661;-62
2021/12/03 19:23:49;;;;;;;1.95;1.20;;;4.90;99.90;;;;;;5093088;27;20679;-62
2021/12/03 19:26:19;;;;;;;0.98;0.88;;;4.90;99.90;;;;;;5093712;28;20194;-62
2021/12/03 19:28:49;;;;;;;1.67;0.95;;;4.90;99.90;;;;;;5080689;27;20716;-63
2021/12/03 19:31:18;;;;;;;1.25;1.00;;;4.80;99.90;;;;;;5076454;28;20197;-62
2021/12/03 19:33:47;;;;;;;2.15;1.08;;;4.80;99.90;;;;;;5072729;28;20277;-62
2021/12/03 19:36:21;;;;;;;1.13;0.75;;;4.80;99.90;;;;;;5072792;28;20195;-62
2021/12/03 19:38:49;;;;;;;1.00;1.00;;;4.80;99.90;;;;;;5072657;28;20231;-62
2021/12/03 19:41:21;;;;;;;1.20;0.90;;;4.80;99.90;;;;;;5074872;28;20214;-62
2021/12/03 19:43:52;;;;;;;1.33;1.00;;;4.80;99.90;;;;;;5073031;28;20265;-62
2021/12/03 19:46:25;;;;;;;1.58;1.00;;;4.80;99.90;;;;;;5083405;28;20202;-62
2021/12/03 19:49:03;;;;;;;1.52;1.10;;;4.90;99.90;;;;;;5075074;28;20224;-62
2021/12/03 19:51:34;;;;;;;1.20;1.10;;;4.80;99.90;;;;;;5077012;28;20208;-62
2021/12/03 19:54:04;;;;;;;2.10;1.10;;;4.80;99.90;;;;;;5104084;28;20720;-61
2021/12/03 19:56:34;;;;;;;1.60;1.10;;;4.80;99.90;;;;;;5083660;28;20188;-62
2021/12/03 19:59:03;;;;;;;1.90;1.45;;;4.80;99.90;;;;;;5085110;28;20222;-62